This is the latest recevied weather packets stored in our database for station/object DO7ZT-10. If no packets are shown the sender has not sent any weather packets the latest 10 day(s).
| Time | Temp. | Humidity | Pressure | Rain* | Wind** | Luminosity | Snow |
|---|---|---|---|---|---|---|---|
| 1777416542 | 5° C | 51% | 1024.6 hPa | - | - | - | - |
| 1777415641 | 7.22° C | 38% | 1024.7 hPa | - | - | - | - |
| 1777414741 | 7.22° C | 38% | 1024.6 hPa | - | - | - | - |
| 1777413841 | 6.67° C | 38% | 1024.6 hPa | - | - | - | - |
| 1777412941 | 6.67° C | 40% | 1024.7 hPa | - | - | - | - |
| 1777412041 | 6.67° C | 41% | 1024.6 hPa | - | - | - | - |
| 1777411141 | 6.11° C | 42% | 1024.5 hPa | - | - | - | - |
| 1777410241 | 6.11° C | 42% | 1024.6 hPa | - | - | - | - |
| 1777409341 | 6.67° C | 42% | 1024.5 hPa | - | - | - | - |
| 1777408441 | 7.22° C | 40% | 1024.5 hPa | - | - | - | - |
| 1777407541 | 8.33° C | 34% | 1024.4 hPa | - | - | - | - |
| 1777406641 | 8.89° C | 32% | 1024.4 hPa | - | - | - | - |
| 1777405741 | 9.44° C | 31% | 1024.2 hPa | - | - | - | - |
| 1777404841 | 9.44° C | 31% | 1024.1 hPa | - | - | - | - |
| 1777403941 | 9.44° C | 32% | 1024 hPa | - | - | - | - |
| 1777403041 | 9.44° C | 33% | 1024 hPa | - | - | - | - |
| 1777402140 | 10° C | 32% | 1023.8 hPa | - | - | - | - |
| 1777401241 | 10.56° C | 31% | 1023.6 hPa | - | - | - | - |
| 1777400340 | 11.11° C | 29% | 1023.5 hPa | - | - | - | - |
| 1777399440 | 11.67° C | 28% | 1023.2 hPa | - | - | - | - |
| 1777398540 | 12.22° C | 27% | 1023.1 hPa | - | - | - | - |
| 1777397640 | 12.78° C | 28% | 1022.9 hPa | - | - | - | - |
| 1777396740 | 12.78° C | 24% | 1022.8 hPa | - | - | - | - |
| 1777395840 | 13.33° C | 24% | 1022.6 hPa | - | - | - | - |
| 1777394940 | 13.89° C | 24% | 1022.6 hPa | - | - | - | - |
* Rain since midnight (hover to see other rain measurements)
** Current wind speed in m/s (hover to see current wind gust speed)